Aérodrome :
LOGIN :

S'inscrire | Disclaimer

   EN    FR    IT 

 










Légende :    VFR   VFR Marginal   IFR   IFR Intensif   IFR Très Intensif
Visi : 
Plafond : 
>= 8 km
>= 3000ft
5 à 8 km
1000 à 3000 ft
1500m à 5 km
500 à 1000 ft
800 à 1500m
200 à 500 ft
< 800m
< 200 ft
Symboles :   Orages  Brouillard  Fortes neiges  Fortes précipitations  Vent > 20 kt
SIGMETs :   Divers  Orages  Givrage  Turbulence  Onde Orograph.  Cendres Volcan.






- Altitude de l'aérodrome : 13 ft
- Code IATA : OST


EBOS - Oostend bruges Int.

DERNIER METAR :
  • 280750Z 34012KT 9999 BKN006 BKN009 15/14 Q1009 TEMPO 2500 DZRA BKN004

METARs EXPIRÉS :
  • 280720Z 36011KT 9000 BKN007 BKN009 15/13 Q1009 TEMPO 2500 DZRA BKN004
  • 280650Z 35013KT 9000 BKN007 15/13 Q1009 TEMPO 2500 DZRA BKN004
  • 280620Z 34015KT 9000 BKN008 15/13 Q1009 TEMPO 2500 DZRA BKN004
  • 280550Z 35014KT 310V010 9000 BKN008 15/14 Q1009 TEMPO 2500 DZRA BKN004
  • 280520Z 35016KT 9999 FEW005 BKN006 15/13 Q1008 TEMPO 2500 DZRA BKN004

TAF TAF EBOS
Valide du 28 à 06h jusqu'au 29 à 12h UTC


280520Z 2806/2912 34014KT 4000 -RADZ BKN006
PROB30
TEMPO 2806/2812 1500 DZ RADZ BKN004
PROB30
TEMPO 2806/2815 5000 NSW BKN012
PROB30
TEMPO 2808/2816 34016G28KT
PROB30
TEMPO 2815/2819 6000 NSW BKN015
BECMG 2819/2821 SCT018
BECMG 2910/2912 22004KT



MET'MAP, la Météo Aéronautique d'un coup d'oeil ! - Copyright ORBIFLY Décembre 2007 - Disclaimer

ORBIFLY MET'MAP TEAM :

Programmation & Développement : Alexandra Zaïnal
Sur une idée originale de : Baudouin d'Aumeries
Assistance à la programmation : Marc-Olivier Méhu
Soutien technique & logistique : Manuel Goepfert

Contact : metmap@orbifly.com




SOURCES & CREDITS :

   NOAA